createdAt,value
2023-03-12T00:00:16.607Z,3.10
2023-03-12T00:02:46.013Z,3.00
2023-03-12T00:05:14.212Z,3.10
2023-03-12T00:07:42.215Z,3.10
2023-03-12T00:10:11.729Z,3.10
2023-03-12T00:12:39.666Z,3.10
2023-03-12T00:15:09.303Z,3.00
2023-03-12T00:17:37.295Z,3.10
2023-03-12T00:20:07.840Z,3.10
2023-03-12T00:22:35.873Z,3.00
2023-03-12T00:25:11.982Z,3.10
2023-03-12T00:27:39.970Z,3.10
2023-03-12T00:30:09.064Z,3.10
2023-03-12T00:32:37.647Z,3.00
2023-03-12T00:35:08.752Z,3.00
2023-03-12T00:37:38.315Z,3.10
2023-03-12T00:40:09.152Z,3.00
2023-03-12T00:42:37.137Z,3.00
2023-03-12T00:45:05.669Z,3.00
2023-03-12T00:47:33.714Z,3.00
2023-03-12T00:50:01.680Z,3.00
2023-03-12T00:52:30.954Z,3.00
2023-03-12T00:54:58.940Z,3.00
2023-03-12T00:57:27.005Z,3.00
2023-03-12T00:59:55.004Z,3.00
2023-03-12T01:02:22.995Z,3.00
2023-03-12T01:04:51.016Z,3.00
2023-03-12T01:07:19.109Z,3.00
2023-03-12T01:09:48.488Z,3.00
2023-03-12T01:12:16.476Z,3.00
2023-03-12T01:14:44.439Z,3.00
2023-03-12T01:17:12.418Z,3.00
2023-03-12T01:19:40.343Z,3.00
2023-03-12T01:22:08.333Z,3.00
2023-03-12T01:24:36.324Z,3.00
2023-03-12T01:27:05.932Z,3.00
2023-03-12T01:29:33.895Z,3.00
2023-03-12T01:32:01.833Z,3.00
2023-03-12T01:34:30.754Z,3.00
2023-03-12T01:36:58.770Z,3.00
2023-03-12T01:39:26.808Z,3.00
2023-03-12T01:41:54.794Z,3.00
2023-03-12T01:44:24.163Z,3.00
2023-03-12T01:46:52.086Z,3.00
2023-03-12T01:49:24.528Z,3.00
2023-03-12T01:51:57.612Z,3.00
2023-03-12T01:54:31.470Z,3.00
2023-03-12T01:56:59.782Z,3.00
2023-03-12T01:59:33.894Z,3.00
2023-03-12T02:02:03.100Z,3.00
2023-03-12T02:04:34.299Z,3.00
2023-03-12T02:07:05.605Z,3.00
2023-03-12T02:09:34.666Z,3.00
2023-03-12T02:12:03.170Z,3.00
2023-03-12T02:14:33.016Z,3.00
2023-03-12T02:17:01.085Z,3.00
2023-03-12T02:19:35.878Z,3.00
2023-03-12T02:22:04.623Z,3.00
2023-03-12T02:24:37.087Z,3.00
2023-03-12T02:27:07.812Z,3.00
2023-03-12T02:29:38.081Z,3.00
2023-03-12T02:32:09.131Z,3.00
2023-03-12T02:34:37.218Z,2.90
2023-03-12T02:37:05.281Z,3.00
2023-03-12T02:39:33.278Z,3.00
2023-03-12T02:42:01.922Z,3.00
2023-03-12T02:44:33.383Z,2.90
2023-03-12T02:47:02.739Z,2.90
2023-03-12T02:49:33.407Z,3.00
2023-03-12T02:52:02.282Z,3.00
2023-03-12T02:54:30.494Z,3.00
2023-03-12T02:56:58.752Z,3.00
2023-03-12T02:59:27.460Z,3.00
2023-03-12T03:01:58.529Z,3.00
2023-03-12T03:04:27.981Z,3.00
2023-03-12T03:06:56.225Z,3.00
2023-03-12T03:09:25.289Z,3.00
2023-03-12T03:11:53.378Z,3.00
2023-03-12T03:14:21.362Z,3.00
2023-03-12T03:16:49.331Z,3.00
2023-03-12T03:19:19.110Z,3.00
2023-03-12T03:21:47.631Z,3.00
2023-03-12T03:24:15.633Z,3.00
2023-03-12T03:26:44.224Z,3.00
2023-03-12T03:29:12.316Z,3.00
2023-03-12T03:31:40.242Z,3.00
2023-03-12T03:34:08.161Z,3.00
2023-03-12T03:36:37.493Z,3.00
2023-03-12T03:39:05.552Z,3.00
2023-03-12T03:41:33.691Z,3.00
2023-03-12T03:44:01.613Z,3.00
2023-03-12T03:46:29.670Z,3.00
2023-03-12T03:48:58.275Z,3.00
2023-03-12T03:51:26.193Z,3.00
2023-03-12T03:53:55.744Z,3.00
2023-03-12T03:56:23.711Z,3.00
2023-03-12T03:58:51.631Z,3.00
2023-03-12T04:01:19.872Z,3.00
2023-03-12T04:03:48.178Z,3.00
2023-03-12T04:06:16.175Z,3.00
2023-03-12T04:08:44.150Z,3.00
2023-03-12T04:11:15.718Z,3.10
2023-03-12T04:13:44.213Z,3.00
2023-03-12T04:16:13.093Z,3.10
2023-03-12T04:18:41.500Z,3.00
2023-03-12T04:21:17.951Z,3.00
2023-03-12T04:23:46.000Z,3.10
2023-03-12T04:26:15.448Z,3.10
2023-03-12T04:28:43.385Z,3.00
2023-03-12T04:31:12.641Z,3.00
2023-03-12T04:33:42.106Z,3.10
2023-03-12T04:36:10.217Z,3.00
2023-03-12T04:38:38.387Z,3.10
2023-03-12T04:41:08.864Z,3.10
2023-03-12T04:43:38.155Z,3.10
2023-03-12T04:46:06.767Z,3.10
2023-03-12T04:48:35.638Z,3.10
2023-03-12T04:51:04.240Z,3.10
2023-03-12T04:53:32.507Z,3.10
2023-03-12T04:56:00.444Z,3.10
2023-03-12T04:58:28.726Z,3.10
2023-03-12T05:00:58.028Z,3.10
2023-03-12T05:03:26.099Z,3.10
2023-03-12T05:05:54.079Z,3.10
2023-03-12T05:08:22.099Z,3.10
2023-03-12T05:10:50.100Z,3.10
2023-03-12T05:13:19.830Z,3.10
2023-03-12T05:15:50.606Z,3.10
2023-03-12T05:18:24.130Z,3.10
2023-03-12T05:21:00.044Z,3.10
2023-03-12T05:23:28.646Z,3.10
2023-03-12T05:25:56.799Z,3.10
2023-03-12T05:28:27.846Z,3.10
2023-03-12T05:30:56.571Z,3.10
2023-03-12T05:33:26.328Z,3.10
2023-03-12T05:35:54.492Z,3.20
2023-03-12T05:38:22.509Z,3.10
2023-03-12T05:40:54.579Z,3.10
2023-03-12T05:43:22.950Z,3.20
2023-03-12T05:45:50.956Z,3.20
2023-03-12T05:48:18.974Z,3.10
2023-03-12T05:50:48.534Z,3.20
2023-03-12T05:53:16.678Z,3.20
2023-03-12T05:55:44.596Z,3.20
2023-03-12T05:58:12.558Z,3.20
2023-03-12T06:00:44.365Z,3.20
2023-03-12T06:03:13.174Z,3.20
2023-03-12T06:05:41.201Z,3.20
2023-03-12T06:08:10.477Z,3.20
2023-03-12T06:10:39.905Z,3.20
2023-03-12T06:13:08.770Z,3.20
2023-03-12T06:15:36.749Z,3.20
2023-03-12T06:18:04.869Z,3.20
2023-03-12T06:20:33.000Z,3.20
2023-03-12T06:23:00.980Z,3.20
2023-03-12T06:25:30.295Z,3.20
2023-03-12T06:27:58.274Z,3.20
2023-03-12T06:30:27.098Z,3.20
2023-03-12T06:32:55.288Z,3.20
2023-03-12T06:35:23.438Z,3.20
2023-03-12T06:37:51.439Z,3.20
2023-03-12T06:40:19.672Z,3.20
2023-03-12T06:42:48.990Z,3.20
2023-03-12T06:45:17.098Z,3.20
2023-03-12T06:47:45.082Z,3.30
2023-03-12T06:50:13.144Z,3.20
2023-03-12T06:52:41.837Z,3.20
2023-03-12T06:55:10.129Z,3.30
2023-03-12T06:57:38.075Z,3.30
2023-03-12T07:00:09.051Z,3.30
2023-03-12T07:02:37.093Z,3.30
2023-03-12T07:05:05.537Z,3.30
2023-03-12T07:07:33.516Z,3.30
2023-03-12T07:10:01.525Z,3.30
2023-03-12T07:12:29.463Z,3.30
2023-03-12T07:14:57.390Z,3.30
2023-03-12T07:17:27.336Z,3.30
2023-03-12T07:19:55.318Z,3.40
2023-03-12T07:22:23.289Z,3.40
2023-03-12T07:24:52.225Z,3.40
2023-03-12T07:27:20.684Z,3.40
2023-03-12T07:29:49.468Z,3.40
2023-03-12T07:32:17.810Z,3.40
2023-03-12T07:34:47.421Z,3.40
2023-03-12T07:37:15.434Z,3.50
2023-03-12T07:39:43.799Z,3.50
2023-03-12T07:42:12.760Z,3.50
2023-03-12T07:44:40.732Z,3.50
2023-03-12T07:47:22.674Z,3.50
2023-03-12T07:49:53.988Z,3.50
2023-03-12T07:52:22.231Z,3.50
2023-03-12T07:54:52.715Z,3.60
2023-03-12T07:57:21.230Z,3.60
2023-03-12T07:59:49.448Z,3.60
2023-03-12T08:02:17.963Z,3.60
2023-03-12T08:04:46.142Z,3.60
2023-03-12T08:07:16.036Z,3.60
2023-03-12T08:09:44.370Z,3.60
2023-03-12T08:12:12.392Z,3.70
2023-03-12T08:14:40.596Z,3.70
2023-03-12T08:17:08.594Z,3.70
2023-03-12T08:19:36.611Z,3.70
2023-03-12T08:22:04.549Z,3.80
2023-03-12T08:24:34.019Z,3.80
2023-03-12T08:27:02.003Z,3.80
2023-03-12T08:29:30.012Z,3.90
2023-03-12T08:32:05.032Z,3.90
2023-03-12T08:34:33.579Z,3.90
2023-03-12T08:37:01.720Z,4.00
2023-03-12T08:39:29.846Z,4.00
2023-03-12T08:41:59.227Z,4.00
2023-03-12T08:44:27.331Z,4.10
2023-03-12T08:46:55.399Z,4.10
2023-03-12T08:49:24.085Z,4.10
2023-03-12T08:51:52.786Z,4.20
2023-03-12T08:54:21.301Z,4.20
2023-03-12T08:56:51.924Z,4.20
2023-03-12T08:59:23.436Z,4.20
2023-03-12T09:01:51.864Z,4.30
2023-03-12T09:04:20.066Z,4.40
2023-03-12T09:06:48.079Z,4.40
2023-03-12T09:09:16.085Z,4.40
2023-03-12T09:11:44.009Z,4.40
2023-03-12T09:17:02.171Z,4.50
2023-03-12T09:19:30.690Z,4.60
2023-03-12T09:21:58.790Z,4.70
2023-03-12T09:24:26.808Z,4.70
2023-03-12T09:26:54.787Z,4.80
2023-03-12T09:29:23.488Z,4.90
2023-03-12T09:31:51.609Z,5.00
2023-03-12T09:34:20.933Z,5.00
2023-03-12T09:36:48.990Z,5.00
2023-03-12T09:39:16.947Z,5.10
2023-03-12T09:41:48.487Z,5.10
2023-03-12T09:44:25.833Z,5.20
2023-03-12T09:46:56.616Z,5.20
2023-03-12T09:49:33.409Z,5.20
2023-03-12T09:52:03.225Z,5.40
2023-03-12T09:54:35.851Z,5.40
2023-03-12T09:57:10.191Z,5.40
2023-03-12T09:59:38.216Z,5.40
2023-03-12T10:02:15.582Z,5.50
2023-03-12T10:04:58.959Z,5.60
2023-03-12T10:07:33.451Z,5.60
2023-03-12T10:10:45.142Z,5.70
2023-03-12T10:13:25.837Z,5.70
2023-03-12T10:16:06.546Z,5.80
2023-03-12T10:18:48.550Z,5.80
2023-03-12T10:21:26.375Z,5.90
2023-03-12T10:24:12.550Z,5.90
2023-03-12T10:26:43.998Z,6.00
2023-03-12T10:29:17.136Z,6.20
2023-03-12T10:31:52.538Z,6.20
2023-03-12T10:34:24.344Z,6.30
2023-03-12T10:36:55.688Z,6.40
2023-03-12T10:39:23.681Z,6.50
2023-03-12T10:41:53.031Z,6.70
2023-03-12T10:44:24.422Z,6.70
2023-03-12T10:47:00.613Z,6.70
2023-03-12T10:49:32.169Z,6.80
2023-03-12T10:52:05.113Z,6.90
2023-03-12T10:54:35.887Z,7.00
2023-03-12T10:57:03.870Z,7.00
2023-03-12T10:59:34.568Z,7.00
2023-03-12T11:02:24.624Z,7.10
2023-03-12T11:04:53.601Z,7.20
2023-03-12T11:07:28.741Z,7.20
2023-03-12T11:10:17.005Z,7.30
2023-03-12T11:13:00.854Z,7.20
2023-03-12T11:15:37.823Z,7.30
2023-03-12T11:18:29.314Z,7.30
2023-03-12T11:20:59.266Z,7.40
2023-03-12T11:23:31.605Z,7.40
2023-03-12T11:26:03.024Z,7.50
2023-03-12T11:28:38.458Z,7.50
2023-03-12T11:31:10.754Z,7.50
2023-03-12T11:33:38.926Z,7.60
2023-03-12T11:36:26.459Z,7.70
2023-03-12T11:39:03.015Z,7.70
2023-03-12T11:41:49.876Z,7.80
2023-03-12T11:44:26.718Z,7.90
2023-03-12T11:47:07.486Z,8.00
2023-03-12T11:49:58.551Z,8.00
2023-03-12T11:52:38.534Z,8.10
2023-03-12T11:55:22.488Z,8.20
2023-03-12T11:58:02.040Z,8.20
2023-03-12T12:00:36.680Z,8.30
2023-03-12T12:03:35.386Z,8.40
2023-03-12T12:06:07.627Z,8.40
2023-03-12T12:08:50.072Z,8.50
2023-03-12T12:11:29.821Z,8.50
2023-03-12T12:14:11.422Z,8.60
2023-03-12T12:16:54.442Z,8.60
2023-03-12T12:19:35.003Z,8.70
2023-03-12T12:22:14.636Z,8.80
2023-03-12T12:25:03.431Z,8.80
2023-03-12T12:27:39.480Z,8.90
2023-03-12T12:30:22.302Z,8.90
2023-03-12T12:33:09.500Z,9.00
2023-03-12T12:35:40.315Z,9.00
2023-03-12T12:38:14.122Z,9.10
2023-03-12T12:40:45.032Z,9.10
2023-03-12T12:43:24.926Z,9.20
2023-03-12T12:45:56.529Z,9.20
2023-03-12T12:48:30.375Z,9.20
2023-03-12T12:51:00.207Z,9.30
2023-03-12T12:53:33.984Z,9.30
2023-03-12T12:56:12.542Z,9.40
2023-03-12T12:58:58.990Z,9.40
2023-03-12T13:01:28.241Z,9.50
2023-03-12T13:04:02.309Z,9.50
2023-03-12T13:06:32.218Z,9.50
2023-03-12T13:09:03.499Z,9.50
2023-03-12T13:11:40.472Z,9.60
2023-03-12T13:14:37.944Z,9.60
2023-03-12T13:17:28.072Z,9.60
2023-03-12T13:20:14.521Z,9.70
2023-03-12T13:23:25.965Z,9.70
2023-03-12T13:26:02.035Z,9.80
2023-03-12T13:28:42.010Z,9.80
2023-03-12T13:31:37.732Z,9.80
2023-03-12T13:34:51.747Z,9.90
2023-03-12T13:37:39.511Z,9.90
2023-03-12T13:41:02.381Z,10.00
2023-03-12T13:43:52.348Z,10.10
2023-03-12T13:46:45.133Z,10.10
2023-03-12T13:49:17.130Z,10.20
2023-03-12T13:51:57.382Z,10.20
2023-03-12T13:54:29.698Z,10.30
2023-03-12T13:57:03.683Z,10.30
2023-03-12T13:59:33.340Z,10.40
2023-03-12T14:02:06.816Z,10.50
2023-03-12T14:04:38.362Z,10.60
2023-03-12T14:07:35.956Z,10.70
2023-03-12T14:10:15.249Z,10.80
2023-03-12T14:12:52.545Z,10.90
2023-03-12T14:15:28.907Z,11.00
2023-03-12T14:18:02.181Z,11.10
2023-03-12T14:20:31.636Z,11.20
2023-03-12T14:23:02.066Z,11.30
2023-03-12T14:25:36.104Z,11.30
2023-03-12T14:28:05.047Z,11.40
2023-03-12T14:30:45.513Z,11.40
2023-03-12T14:33:16.882Z,11.40
2023-03-12T14:35:49.102Z,11.50
2023-03-12T14:38:22.852Z,11.40
2023-03-12T14:40:56.152Z,11.40
2023-03-12T14:43:26.571Z,11.40
2023-03-12T14:45:59.008Z,11.30
2023-03-12T14:48:32.377Z,11.30
2023-03-12T14:51:01.922Z,11.30
2023-03-12T14:53:32.239Z,11.30
2023-03-12T14:56:02.199Z,11.30
2023-03-12T14:58:31.190Z,11.30
2023-03-12T15:01:01.877Z,11.30
2023-03-12T15:03:34.759Z,11.30
2023-03-12T15:06:02.710Z,11.30
2023-03-12T15:08:33.491Z,11.30
2023-03-12T15:11:01.464Z,11.30
2023-03-12T15:13:29.580Z,11.30
2023-03-12T15:15:57.770Z,11.30
2023-03-12T15:18:28.054Z,11.30
2023-03-12T15:20:59.433Z,11.30
2023-03-12T15:23:48.593Z,11.30
2023-03-12T15:26:28.874Z,11.20
2023-03-12T15:28:58.235Z,11.30
2023-03-12T15:31:26.615Z,11.20
2023-03-12T15:34:02.436Z,11.20
2023-03-12T15:36:34.175Z,11.20
2023-03-12T15:39:05.774Z,11.20
2023-03-12T15:41:44.043Z,11.20
2023-03-12T15:44:19.947Z,11.20
2023-03-12T15:46:49.780Z,11.20
2023-03-12T15:49:24.905Z,11.10
2023-03-12T15:52:03.173Z,11.10
2023-03-12T15:54:31.919Z,11.10
2023-03-12T15:57:23.511Z,11.10
2023-03-12T16:00:09.432Z,11.10
2023-03-12T16:02:38.730Z,11.00
2023-03-12T16:05:08.179Z,11.00
2023-03-12T16:07:38.176Z,11.00
2023-03-12T16:10:08.128Z,11.00
2023-03-12T16:12:38.061Z,11.00
2023-03-12T16:15:07.058Z,11.00
2023-03-12T16:17:35.048Z,10.90
2023-03-12T16:20:04.062Z,10.90
2023-03-12T16:22:32.089Z,10.90
2023-03-12T16:25:01.458Z,10.90
2023-03-12T16:27:32.678Z,10.90
2023-03-12T16:30:01.125Z,10.90
2023-03-12T16:32:29.629Z,10.80
2023-03-12T16:34:57.898Z,10.80
2023-03-12T16:37:26.651Z,10.80
2023-03-12T16:39:54.618Z,10.80
2023-03-12T16:42:24.097Z,10.80
2023-03-12T16:44:52.157Z,10.70
2023-03-12T16:47:20.183Z,10.70
2023-03-12T16:49:48.114Z,10.70
2023-03-12T16:52:18.974Z,10.60
2023-03-12T16:54:46.960Z,10.60
2023-03-12T16:57:21.151Z,10.60
2023-03-12T16:59:50.760Z,10.60
2023-03-12T17:02:21.136Z,10.50
2023-03-12T17:04:51.030Z,10.50
2023-03-12T17:07:19.085Z,10.50
2023-03-12T17:09:47.113Z,10.40
2023-03-12T17:12:29.563Z,10.40
2023-03-12T17:14:59.730Z,10.30
2023-03-12T17:17:27.667Z,10.30
2023-03-12T17:19:55.742Z,10.30
2023-03-12T17:22:23.762Z,10.30
2023-03-12T17:24:51.706Z,10.20
2023-03-12T17:27:19.782Z,10.20
2023-03-12T17:29:47.764Z,10.20
2023-03-12T17:32:17.286Z,10.10
2023-03-12T17:34:45.354Z,10.10
2023-03-12T17:37:13.500Z,10.10
2023-03-12T17:39:41.488Z,10.10
2023-03-12T17:42:09.523Z,10.10
2023-03-12T17:44:39.004Z,10.00
2023-03-12T17:47:07.840Z,10.00
2023-03-12T17:49:37.275Z,10.00
2023-03-12T17:52:05.314Z,10.00
2023-03-12T17:54:33.304Z,10.00
2023-03-12T17:57:01.246Z,9.90
2023-03-12T17:59:29.222Z,9.90
2023-03-12T18:01:57.211Z,9.90
2023-03-12T18:04:25.340Z,9.90
2023-03-12T18:06:54.922Z,9.90
2023-03-12T18:09:23.338Z,9.80
2023-03-12T18:11:51.400Z,9.80
2023-03-12T18:14:19.503Z,9.80
2023-03-12T18:16:47.496Z,9.80
2023-03-12T18:19:16.013Z,9.80
2023-03-12T18:21:44.168Z,9.80
2023-03-12T18:24:14.634Z,9.80
2023-03-12T18:26:43.073Z,9.80
2023-03-12T18:29:11.012Z,9.80
2023-03-12T18:31:39.108Z,9.80
2023-03-12T18:34:07.194Z,9.80
2023-03-12T18:36:35.200Z,9.80
2023-03-12T18:39:06.238Z,9.80
2023-03-12T18:41:36.515Z,9.80
2023-03-12T18:44:04.970Z,9.70
2023-03-12T18:46:32.972Z,9.70
2023-03-12T18:49:05.516Z,9.70
2023-03-12T18:51:33.573Z,9.70
2023-03-12T18:54:01.786Z,9.70
2023-03-12T18:56:29.950Z,9.70
2023-03-12T18:58:59.308Z,9.70
2023-03-12T19:01:27.386Z,9.70
2023-03-12T19:03:55.524Z,9.70
2023-03-12T19:06:23.508Z,9.70
2023-03-12T19:08:51.589Z,9.70
2023-03-12T19:11:19.696Z,9.70
2023-03-12T19:13:52.160Z,9.60
2023-03-12T19:16:22.740Z,9.60
2023-03-12T19:18:51.689Z,9.60
2023-03-12T19:21:20.052Z,9.60
2023-03-12T19:23:48.060Z,9.60
2023-03-12T19:26:16.070Z,9.70
2023-03-12T19:28:44.309Z,9.60
2023-03-12T19:31:15.331Z,9.60
2023-03-12T19:33:45.131Z,9.60
2023-03-12T19:36:13.161Z,9.60
2023-03-12T19:38:41.468Z,9.60
2023-03-12T19:41:10.066Z,9.60
2023-03-12T19:43:40.033Z,9.60
2023-03-12T19:46:08.407Z,9.60
2023-03-12T19:48:36.426Z,9.60
2023-03-12T19:51:10.287Z,9.60
2023-03-12T19:53:38.733Z,9.60
2023-03-12T19:56:07.222Z,9.60
2023-03-12T19:58:35.225Z,9.60
2023-03-12T20:01:04.162Z,9.60
2023-03-12T20:03:32.852Z,9.60
2023-03-12T20:06:01.083Z,9.60
2023-03-12T20:08:33.264Z,9.60
2023-03-12T20:11:05.723Z,9.60
2023-03-12T20:13:34.315Z,9.60
2023-03-12T20:16:03.812Z,9.60
2023-03-12T20:18:31.995Z,9.60
2023-03-12T20:20:59.977Z,9.60
2023-03-12T20:23:27.973Z,9.60
2023-03-12T20:25:57.234Z,9.60
2023-03-12T20:28:25.144Z,9.60
2023-03-12T20:30:53.479Z,9.60
2023-03-12T20:33:21.604Z,9.60
2023-03-12T20:35:50.546Z,9.60
2023-03-12T20:38:18.543Z,9.50
2023-03-12T20:40:47.142Z,9.50
2023-03-12T20:43:16.995Z,9.50
2023-03-12T20:45:48.629Z,9.50
2023-03-12T20:48:17.741Z,9.50
2023-03-12T20:50:45.774Z,9.50
2023-03-12T20:53:13.686Z,9.50
2023-03-12T20:55:41.761Z,9.50
2023-03-12T20:58:09.868Z,9.50
2023-03-12T21:00:39.126Z,9.50
2023-03-12T21:03:07.135Z,9.50
2023-03-12T21:05:35.092Z,9.50
2023-03-12T21:08:03.096Z,9.50
2023-03-12T21:10:31.729Z,9.50
2023-03-12T21:12:59.931Z,9.50
2023-03-12T21:15:27.925Z,9.50
2023-03-12T21:17:57.320Z,9.50
2023-03-12T21:20:25.664Z,9.40
2023-03-12T21:22:53.764Z,9.40
2023-03-12T21:25:21.805Z,9.40
2023-03-12T21:27:51.687Z,9.40
2023-03-12T21:30:20.482Z,9.40
2023-03-12T21:32:48.507Z,9.40
2023-03-12T21:35:20.033Z,9.40
2023-03-12T21:37:48.331Z,9.30
2023-03-12T21:40:17.261Z,9.30
2023-03-12T21:42:45.266Z,9.30
2023-03-12T21:45:13.204Z,9.30
2023-03-12T21:47:41.568Z,9.30
2023-03-12T21:50:10.877Z,9.20
2023-03-12T21:52:43.306Z,9.20
2023-03-12T21:55:12.278Z,9.20
2023-03-12T21:57:40.240Z,9.20
2023-03-12T22:00:12.834Z,9.20
2023-03-12T22:02:41.330Z,9.20
2023-03-12T22:05:10.363Z,9.20
2023-03-12T22:07:40.023Z,9.10
2023-03-12T22:10:11.774Z,9.10
2023-03-12T22:12:40.367Z,9.10
2023-03-12T22:15:09.720Z,9.10
2023-03-12T22:17:37.693Z,9.10
2023-03-12T22:20:07.909Z,9.10
2023-03-12T22:22:35.886Z,9.00
2023-03-12T22:25:05.823Z,9.00
2023-03-12T22:27:33.822Z,9.00
2023-03-12T22:30:01.889Z,9.00
2023-03-12T22:32:30.139Z,9.00
2023-03-12T22:34:58.094Z,9.00
2023-03-12T22:37:26.002Z,9.00
2023-03-12T22:39:58.243Z,9.00
2023-03-12T22:42:27.548Z,9.00
2023-03-12T22:44:55.643Z,8.90
2023-03-12T22:47:24.035Z,9.00
2023-03-12T22:49:53.086Z,8.90
2023-03-12T22:52:21.017Z,8.90
2023-03-12T22:54:49.087Z,8.90
2023-03-12T22:57:17.075Z,8.90
2023-03-12T22:59:48.013Z,8.90
2023-03-12T23:02:16.040Z,8.90
2023-03-12T23:04:44.037Z,8.90
2023-03-12T23:07:16.543Z,8.90
2023-03-12T23:09:45.205Z,8.90
2023-03-12T23:12:13.165Z,8.90
2023-03-12T23:14:41.135Z,8.90
2023-03-12T23:17:11.347Z,8.90
2023-03-12T23:19:39.362Z,8.90
2023-03-12T23:22:08.171Z,8.90
2023-03-12T23:24:36.517Z,8.90
2023-03-12T23:27:05.439Z,8.90
2023-03-12T23:29:33.857Z,8.90
2023-03-12T23:32:02.158Z,8.90
2023-03-12T23:34:31.554Z,8.90
2023-03-12T23:36:59.551Z,8.80
2023-03-12T23:39:27.800Z,8.80
2023-03-12T23:41:56.401Z,8.90
2023-03-12T23:44:24.858Z,8.80
2023-03-12T23:46:52.866Z,8.90
2023-03-12T23:49:20.906Z,8.90
2023-03-12T23:51:50.300Z,8.80
2023-03-12T23:54:18.273Z,8.90
2023-03-12T23:56:46.227Z,8.90
2023-03-12T23:59:14.229Z,8.90
